Time;durP1;ratioP1;P1;durP2;ratioP2;P2;SDS_P1;SDS_P2;PMS_P1;PMS_P2;Temp;Humidity;BMP_temperature;BMP_pressure;BME280_temperature;BME280_humidity;BME280_pressure;Samples;Min_cycle;Max_cycle;Signal;HPM_P1;HPM_P2
2022/06/10 00:01:03;;;;;;;0.80;0.10;;;;;;;21.99;31.16;100353.78;4788312;29;20039;-60
2022/06/10 00:03:32;;;;;;;0.43;0.03;;;;;;;22.19;30.38;100350.22;4788164;29;20062;-60
2022/06/10 00:06:04;;;;;;;3.40;0.10;;;;;;;22.30;30.58;100351.25;4787962;29;20519;-60
2022/06/10 00:08:37;;;;;;;0.10;0.00;;;;;;;22.31;30.33;100354.81;4787952;29;20502;-60
2022/06/10 00:11:06;;;;;;;0.10;0.00;;;;;;;22.38;31.32;100355.78;4788375;29;20050;-60
2022/06/10 00:13:37;;;;;;;0.00;0.00;;;;;;;22.29;30.31;100356.00;4788116;29;20051;-60
2022/06/10 00:16:06;;;;;;;0.00;0.00;;;;;;;22.32;31.34;100353.66;4788357;29;20055;-60
2022/06/10 00:18:36;;;;;;;1.20;0.00;;;;;;;22.38;31.73;100352.19;4788250;29;20051;-60
2022/06/10 00:21:07;;;;;;;0.00;0.00;;;;;;;22.35;30.59;100364.06;4788299;29;20086;-60
2022/06/10 00:23:39;;;;;;;0.03;0.03;;;;;;;22.34;32.70;100356.88;4787894;29;20059;-60
2022/06/10 00:26:08;;;;;;;0.17;0.10;;;;;;;22.37;29.88;100358.94;4787902;29;20070;-60
2022/06/10 00:28:36;;;;;;;0.10;0.10;;;;;;;22.36;31.07;100360.94;4788086;29;20055;-60
2022/06/10 00:31:04;;;;;;;0.17;0.10;;;;;;;22.35;30.22;100364.06;4787918;29;20384;-60
2022/06/10 00:33:34;;;;;;;0.20;0.00;;;;;;;22.37;30.45;100362.53;4787974;29;20069;-60
2022/06/10 00:36:05;;;;;;;0.57;0.20;;;;;;;22.34;30.22;100357.69;4788044;29;20062;-61
2022/06/10 00:38:34;;;;;;;0.30;0.20;;;;;;;22.28;29.37;100359.97;4788003;29;20062;-60
2022/06/10 00:41:03;;;;;;;0.20;0.00;;;;;;;22.21;30.02;100362.59;4787667;29;20071;-60
2022/06/10 00:43:34;;;;;;;0.00;0.00;;;;;;;22.14;30.59;100362.47;4787780;29;20050;-60
2022/06/10 00:46:34;;;;;;;0.65;0.13;;;;;;;22.15;30.09;100353.72;4787742;29;20051;-60
2022/06/10 00:49:05;;;;;;;0.00;0.00;;;;;;;22.21;30.37;100367.34;4787379;29;20082;-60
2022/06/10 00:51:49;;;;;;;0.52;0.10;;;;;;;22.11;30.70;100366.78;4787617;29;20055;-60
2022/06/10 00:54:45;;;;;;;0.00;0.00;;;;;;;21.97;30.83;100367.25;4787470;29;20384;-60
2022/06/10 00:57:19;;;;;;;0.00;0.00;;;;;;;21.84;30.46;100366.56;4786606;29;20055;-60
2022/06/10 01:00:00;;;;;;;1.85;0.13;;;;;;;21.77;31.07;100363.63;4787538;29;20063;-60
2022/06/10 01:02:33;;;;;;;0.00;0.00;;;;;;;21.77;31.71;100373.94;4787282;29;20058;-60
2022/06/10 01:05:06;;;;;;;0.10;0.03;;;;;;;21.84;32.01;100369.34;4787431;29;20399;-61
2022/06/10 01:07:38;;;;;;;0.35;0.00;;;;;;;21.74;31.75;100375.47;4787129;29;20066;-60
2022/06/10 01:10:14;;;;;;;0.00;0.00;;;;;;;21.71;31.15;100365.06;4787246;29;20060;-60
2022/06/10 01:12:50;;;;;;;0.20;0.10;;;;;;;21.79;31.88;100382.75;4787515;29;20498;-60
2022/06/10 01:15:22;;;;;;;0.10;0.10;;;;;;;21.68;31.35;100374.91;4787733;29;20388;-60
2022/06/10 01:18:10;;;;;;;0.00;0.00;;;;;;;21.68;32.26;100376.88;4787529;29;20054;-61
2022/06/10 01:21:03;;;;;;;0.30;0.10;;;;;;;21.98;31.47;100376.41;4786391;29;20063;-61
2022/06/10 01:23:40;;;;;;;0.00;0.00;;;;;;;22.00;30.77;100383.25;4787147;29;20055;-60
2022/06/10 01:26:32;;;;;;;2.00;0.20;;;;;;;21.99;31.19;100380.81;4786892;29;20062;-60
2022/06/10 01:29:06;;;;;;;0.10;0.10;;;;;;;22.10;31.54;100383.84;4786555;29;20066;-60
2022/06/10 01:31:43;;;;;;;0.00;0.00;;;;;;;21.94;32.23;100379.13;4787083;29;20054;-60
2022/06/10 01:34:30;;;;;;;1.33;0.15;;;;;;;21.78;30.83;100395.03;4787056;29;20078;-61
2022/06/10 01:37:11;;;;;;;0.00;0.00;;;;;;;21.64;33.10;100395.50;4787142;29;20055;-61
2022/06/10 01:39:54;;;;;;;0.22;0.22;;;;;;;21.52;32.76;100391.66;4786125;29;20151;-60
2022/06/10 01:42:27;;;;;;;0.90;0.60;;;;;;;21.45;32.71;100395.06;4786897;29;20495;-60
2022/06/10 01:45:01;;;;;;;0.10;0.10;;;;;;;21.47;31.46;100391.91;4786634;29;20059;-60
2022/06/10 01:47:47;;;;;;;0.20;0.10;;;;;;;21.59;31.74;100402.13;4786915;29;20072;-60
2022/06/10 01:50:22;;;;;;;0.25;0.10;;;;;;;21.56;31.60;100398.09;4786648;29;20054;-61
2022/06/10 01:53:00;;;;;;;0.00;0.00;;;;;;;21.79;31.82;100408.63;4786529;29;20066;-60
2022/06/10 01:55:38;;;;;;;0.10;0.10;;;;;;;21.86;30.09;100406.00;4786809;29;20059;-61
2022/06/10 01:58:23;;;;;;;0.90;0.10;;;;;;;22.09;30.47;100412.91;4786302;29;20054;-61
2022/06/10 02:01:16;;;;;;;0.80;0.10;;;;;;;22.05;30.40;100412.81;4785502;29;20059;-61
2022/06/10 02:03:53;;;;;;;0.50;0.25;;;;;;;22.15;30.29;100414.22;4785698;29;20051;-61
2022/06/10 02:06:29;;;;;;;0.80;0.20;;;;;;;21.99;30.98;100415.06;4786695;29;20055;-61
2022/06/10 02:09:02;;;;;;;1.85;0.32;;;;;;;21.85;31.41;100417.53;4786323;29;20051;-60
2022/06/10 02:11:33;;;;;;;0.55;0.50;;;;;;;21.77;32.77;100418.50;4786239;29;20513;-61
2022/06/10 02:14:10;;;;;;;0.30;0.30;;;;;;;21.56;32.57;100416.78;4786151;29;20063;-61
2022/06/10 02:16:45;;;;;;;0.70;0.17;;;;;;;21.41;33.22;100421.97;4786107;29;20423;-61
2022/06/10 02:19:17;;;;;;;1.20;0.10;;;;;;;21.27;34.01;100430.78;4786087;29;20066;-61
2022/06/10 02:21:53;;;;;;;0.20;0.20;;;;;;;21.18;35.02;100424.56;4785641;29;20054;-61
2022/06/10 02:24:39;;;;;;;0.50;0.20;;;;;;;21.09;34.67;100430.28;4790840;29;20058;-61
2022/06/10 02:27:14;;;;;;;1.75;0.20;;;;;;;21.05;35.07;100426.59;4791989;29;20047;-61
2022/06/10 02:30:14;;;;;;;0.32;0.20;;;;;;;21.24;34.33;100422.31;4786234;29;20483;-60
2022/06/10 02:32:43;;;;;;;0.20;0.20;;;;;;;21.29;34.29;100434.00;4786329;29;20070;-61
2022/06/10 02:35:13;;;;;;;0.15;0.15;;;;;;;21.24;33.18;100430.66;4786634;29;20071;-61
2022/06/10 02:38:09;;;;;;;0.20;0.20;;;;;;;21.36;33.58;100427.81;4786366;29;20055;-61
2022/06/10 02:40:46;;;;;;;0.43;0.10;;;;;;;21.46;33.29;100435.63;4786054;29;20078;-60
2022/06/10 02:43:14;;;;;;;0.55;0.10;;;;;;;21.62;32.66;100432.84;4786328;29;20410;-60
2022/06/10 02:46:02;;;;;;;1.45;0.10;;;;;;;21.52;32.77;100436.19;4786122;29;20127;-60
2022/06/10 02:48:50;;;;;;;0.10;0.10;;;;;;;21.36;33.52;100447.28;4786081;29;20043;-60
2022/06/10 02:51:19;;;;;;;0.20;0.00;;;;;;;21.27;33.79;100450.25;4786058;29;20059;-60
2022/06/10 02:53:47;;;;;;;0.10;0.10;;;;;;;21.25;33.90;100447.00;4785998;29;20039;-61
2022/06/10 02:56:20;;;;;;;0.20;0.10;;;;;;;21.18;34.29;100449.59;4786014;29;20096;-60
2022/06/10 03:01:59;;;;;;;0.00;0.00;;;;;;;20.93;34.48;100456.09;4785935;29;20056;-60
2022/06/10 03:04:42;;;;;;;0.10;0.10;;;;;;;20.83;33.95;100467.69;4784349;29;20062;-60
2022/06/10 03:07:32;;;;;;;0.10;0.10;;;;;;;20.96;34.31;100467.69;4800241;29;20043;-60
2022/06/10 03:10:08;;;;;;;0.10;0.10;;;;;;;20.79;36.61;100453.69;4785875;29;20059;-60
2022/06/10 03:13:09;;;;;;;0.08;0.08;;;;;;;20.68;34.72;100461.72;4784998;29;20055;-60
2022/06/10 03:15:37;;;;;;;0.45;0.20;;;;;;;20.86;34.91;100461.44;4785442;29;20047;-60
2022/06/10 03:18:30;;;;;;;0.10;0.10;;;;;;;21.08;35.03;100470.41;4785861;29;20055;-60
2022/06/10 03:21:07;;;;;;;0.73;0.13;;;;;;;20.87;35.42;100470.63;4785334;29;20047;-60
2022/06/10 03:23:41;;;;;;;0.20;0.20;;;;;;;20.73;35.61;100473.75;4785785;29;20051;-60
2022/06/10 03:26:44;;;;;;;0.10;0.10;;;;;;;20.82;35.54;100463.28;4785908;29;20503;-60
2022/06/10 03:29:27;;;;;;;1.55;0.10;;;;;;;20.64;36.55;100469.13;4786124;29;20062;-60
2022/06/10 03:32:04;;;;;;;1.60;0.33;;;;;;;20.37;37.08;100465.97;4789146;29;20051;-60
2022/06/10 03:34:41;;;;;;;0.22;0.22;;;;;;;20.28;36.04;100476.38;4788969;29;20055;-60
2022/06/10 03:37:11;;;;;;;2.05;0.10;;;;;;;20.39;39.34;100466.41;4789415;29;20055;-60
2022/06/10 03:39:41;;;;;;;0.40;0.40;;;;;;;20.34;37.18;100465.84;4788579;29;20044;-61
2022/06/10 03:42:17;;;;;;;0.80;0.20;;;;;;;20.21;36.72;100471.44;4789143;29;20051;-60
2022/06/10 03:44:48;;;;;;;0.70;0.22;;;;;;;20.06;38.86;100472.94;4788634;29;20047;-60
2022/06/10 03:47:24;;;;;;;0.10;0.10;;;;;;;19.92;38.33;100481.59;4788862;29;20066;-60
2022/06/10 03:50:06;;;;;;;0.55;0.20;;;;;;;19.79;39.35;100479.97;4788526;29;20052;-60
2022/06/10 03:52:37;;;;;;;0.00;0.00;;;;;;;19.76;37.42;100483.41;4788536;29;20054;-60
2022/06/10 03:55:08;;;;;;;0.30;0.10;;;;;;;19.78;39.06;100489.41;4788250;29;20066;-60
2022/06/10 03:57:36;;;;;;;0.22;0.20;;;;;;;19.80;38.31;100490.69;4788361;29;20491;-61
2022/06/10 04:00:06;;;;;;;0.13;0.10;;;;;;;19.71;38.76;100481.69;4788157;29;20055;-60
2022/06/10 04:02:38;;;;;;;;;;;;;;;19.61;39.13;100489.28;4788578;29;20415;-60
2022/06/10 04:05:08;;;;;;;1.55;0.20;;;;;;;19.56;38.87;100494.25;4788481;29;19942;-60
2022/06/10 04:07:36;;;;;;;0.20;0.20;;;;;;;19.54;38.69;100489.06;4788383;29;20044;-60
2022/06/10 04:10:06;;;;;;;0.00;0.00;;;;;;;19.56;39.92;100489.50;4788113;29;20493;-60
2022/06/10 04:12:34;;;;;;;0.20;0.20;;;;;;;19.59;38.46;100490.78;4788241;29;20047;-60
2022/06/10 04:15:03;;;;;;;0.30;0.30;;;;;;;19.69;37.74;100490.34;4788432;29;20062;-60
2022/06/10 04:17:32;;;;;;;0.88;0.40;;;;;;;20.06;38.77;100497.94;4788013;29;20051;-61
2022/06/10 04:20:00;;;;;;;0.10;0.10;;;;;;;20.04;40.22;100503.00;4787625;29;20530;-60
2022/06/10 04:22:28;;;;;;;0.40;0.15;;;;;;;20.03;39.66;100508.94;4788007;29;20522;-60
2022/06/10 04:24:55;;;;;;;0.22;0.22;;;;;;;20.07;39.08;100505.09;4787888;29;20051;-61
2022/06/10 04:27:23;;;;;;;0.10;0.10;;;;;;;20.40;39.66;100512.50;4787909;29;20062;-60
2022/06/10 04:29:51;;;;;;;0.68;0.22;;;;;;;20.67;39.44;100521.25;4787823;29;20054;-61
2022/06/10 04:32:19;;;;;;;0.10;0.10;;;;;;;20.74;39.74;100523.47;4788008;29;20066;-61
2022/06/10 04:34:47;;;;;;;9.75;0.93;;;;;;;20.65;41.39;100517.22;4787891;29;20047;-67
2022/06/10 04:37:15;;;;;;;2.05;0.70;;;;;;;20.86;39.75;100519.06;4787560;29;20074;-67
2022/06/10 04:39:43;;;;;;;2.95;0.50;;;;;;;21.05;39.76;100515.63;4786060;29;20349;-67
2022/06/10 04:42:11;;;;;;;0.70;0.50;;;;;;;21.17;40.43;100517.56;4801028;29;20616;-67
2022/06/10 04:44:39;;;;;;;0.45;0.35;;;;;;;21.26;40.18;100518.19;4787319;29;20051;-67
2022/06/10 04:47:07;;;;;;;0.63;0.30;;;;;;;21.34;39.66;100525.59;4787744;29;20047;-67
2022/06/10 04:49:36;;;;;;;0.40;0.20;;;;;;;21.45;40.37;100523.09;4787625;29;20423;-67
2022/06/10 04:52:04;;;;;;;0.50;0.32;;;;;;;21.54;40.14;100519.31;4787471;29;20054;-67
2022/06/10 04:54:32;;;;;;;0.35;0.35;;;;;;;21.61;40.51;100520.34;4787821;29;20426;-67
2022/06/10 04:57:00;;;;;;;0.68;0.40;;;;;;;21.69;38.19;100524.13;4787332;29;20058;-67
2022/06/10 04:59:28;;;;;;;0.22;0.22;;;;;;;21.85;38.87;100537.28;4787177;29;20055;-67
2022/06/10 05:01:56;;;;;;;0.30;0.30;;;;;;;21.93;38.98;100533.50;4800509;29;20055;-66
2022/06/10 05:04:24;;;;;;;1.85;0.73;;;;;;;22.07;39.83;100530.28;4787468;29;20074;-67
2022/06/10 05:06:52;;;;;;;0.45;0.45;;;;;;;22.20;38.25;100535.75;4787153;29;20057;-66
2022/06/10 05:09:20;;;;;;;2.28;0.40;;;;;;;22.32;38.13;100543.19;4786281;29;20067;-66
2022/06/10 05:11:48;;;;;;;0.98;0.50;;;;;;;22.45;38.08;100536.34;4787493;29;20059;-67
2022/06/10 05:14:16;;;;;;;0.82;0.47;;;;;;;22.48;37.34;100543.97;4787462;29;20415;-66
2022/06/10 05:16:45;;;;;;;0.90;0.57;;;;;;;22.48;37.54;100557.13;4787319;29;20051;-66
2022/06/10 05:19:13;;;;;;;1.10;0.65;;;;;;;22.48;37.02;100557.13;4787046;29;20066;-66
2022/06/10 05:21:42;;;;;;;0.80;0.45;;;;;;;22.53;37.16;100560.47;4801841;29;20068;-66
2022/06/10 05:24:09;;;;;;;1.05;0.45;;;;;;;22.66;37.31;100569.53;4785935;29;20047;-66
2022/06/10 05:26:37;;;;;;;1.27;0.65;;;;;;;22.71;36.83;100565.63;4783708;29;20043;-66
2022/06/10 05:29:05;;;;;;;2.47;0.90;;;;;;;22.79;37.11;100572.97;4784546;29;20055;-66
2022/06/10 05:31:34;;;;;;;0.63;0.38;;;;;;;22.91;35.95;100579.59;4786738;29;20055;-66
2022/06/10 05:36:48;;;;;;;0.40;0.40;;;;;;;22.98;36.20;100579.78;4785641;29;20050;-66
2022/06/10 05:39:16;;;;;;;0.50;0.38;;;;;;;23.09;35.47;100589.19;4785414;29;20047;-66
2022/06/10 05:44:32;;;;;;;0.73;0.52;;;;;;;23.14;36.69;100590.06;4784644;29;20050;-66
2022/06/10 05:47:01;;;;;;;0.60;0.40;;;;;;;23.21;35.93;100604.16;4799050;29;20058;-66
2022/06/10 05:49:29;;;;;;;2.08;0.82;;;;;;;23.15;35.65;100600.88;4784891;29;20062;-66
2022/06/10 05:51:57;;;;;;;1.38;0.60;;;;;;;23.27;36.24;100601.91;4769892;29;20047;-66
2022/06/10 05:54:25;;;;;;;1.80;0.70;;;;;;;23.24;35.86;100606.25;4785764;29;20444;-66
2022/06/10 05:56:53;;;;;;;2.15;0.52;;;;;;;23.31;36.16;100616.78;4785709;29;20047;-66
2022/06/10 05:59:22;;;;;;;1.65;0.60;;;;;;;23.37;35.57;100622.88;4785919;29;20495;-66
2022/06/10 06:01:50;;;;;;;1.08;0.60;;;;;;;23.47;35.95;100619.50;4785498;29;20063;-66
2022/06/10 06:04:18;;;;;;;1.27;0.22;;;;;;;23.58;34.73;100616.91;4786024;29;20058;-66
2022/06/10 06:06:46;;;;;;;0.63;0.22;;;;;;;23.71;36.50;100628.75;4785946;29;20055;-66
2022/06/10 06:09:14;;;;;;;0.95;0.40;;;;;;;23.73;35.39;100623.59;4784671;29;20062;-67
2022/06/10 06:11:50;;;;;;;1.15;0.47;;;;;;;23.77;34.62;100630.06;4786082;29;20047;-66
2022/06/10 06:14:18;;;;;;;1.08;0.40;;;;;;;23.73;34.52;100627.19;4785963;29;20052;-66
2022/06/10 06:16:51;;;;;;;0.40;0.30;;;;;;;23.82;35.01;100631.72;4785890;29;20047;-66
2022/06/10 06:19:19;;;;;;;0.43;0.40;;;;;;;23.87;34.30;100637.84;4785816;29;20066;-66
2022/06/10 06:21:47;;;;;;;0.77;0.20;;;;;;;23.99;33.84;100638.81;4745014;29;1244955;-66
2022/06/10 06:24:15;;;;;;;0.57;0.47;;;;;;;24.03;34.21;100642.50;4786386;29;20048;-66
2022/06/10 06:26:44;;;;;;;0.85;0.30;;;;;;;24.03;33.87;100648.09;4786595;29;20080;-66
2022/06/10 06:29:12;;;;;;;0.85;0.40;;;;;;;24.14;34.48;100646.34;4785959;29;20059;-67
2022/06/10 06:31:40;;;;;;;1.90;0.40;;;;;;;24.26;34.46;100641.75;4786724;29;20389;-66
2022/06/10 06:34:09;;;;;;;0.82;0.15;;;;;;;24.36;34.89;100657.91;4786184;29;20059;-66
2022/06/10 06:36:44;;;;;;;0.55;0.40;;;;;;;24.45;34.75;100654.03;4786265;29;20054;-66
2022/06/10 06:39:14;;;;;;;0.75;0.40;;;;;;;24.50;33.03;100657.34;4786329;29;20059;-66
2022/06/10 06:41:48;;;;;;;0.73;0.43;;;;;;;24.52;33.69;100656.94;4786490;29;20059;-66
2022/06/10 06:44:17;;;;;;;0.63;0.43;;;;;;;24.52;33.29;100649.38;4786306;29;20055;-66
2022/06/10 06:46:45;;;;;;;0.75;0.43;;;;;;;24.69;33.17;100659.22;4786138;29;20052;-66
2022/06/10 06:49:21;;;;;;;1.10;0.20;;;;;;;24.77;32.26;100662.13;4786348;29;20047;-66
2022/06/10 06:51:49;;;;;;;0.73;0.30;;;;;;;24.89;33.15;100675.97;4786246;29;20047;-66
2022/06/10 06:54:19;;;;;;;1.17;0.60;;;;;;;24.90;33.24;100669.19;4786331;29;20051;-66
2022/06/10 06:56:48;;;;;;;1.30;0.38;;;;;;;24.99;32.62;100676.47;4786635;29;20059;-66
2022/06/10 06:59:17;;;;;;;0.20;0.20;;;;;;;25.01;34.04;100671.31;4785893;29;20527;-66
2022/06/10 07:01:45;;;;;;;0.32;0.32;;;;;;;25.12;32.62;100682.69;4787864;29;20063;-67
2022/06/10 07:04:13;;;;;;;0.43;0.38;;;;;;;25.10;31.70;100671.84;4789970;29;20058;-66
2022/06/10 07:06:44;;;;;;;0.35;0.25;;;;;;;25.12;32.75;100680.66;4789564;29;20423;-66
2022/06/10 07:09:13;;;;;;;0.75;0.50;;;;;;;25.40;32.74;100679.47;4789821;29;20123;-66
2022/06/10 07:11:41;;;;;;;0.40;0.20;;;;;;;25.45;32.01;100676.31;4789825;29;20055;-66
2022/06/10 07:14:12;;;;;;;0.65;0.32;;;;;;;25.44;31.66;100677.50;4789342;29;20068;-66
2022/06/10 07:16:41;;;;;;;0.55;0.40;;;;;;;25.50;32.26;100683.56;4789436;29;20048;-66
2022/06/10 07:19:11;;;;;;;0.63;0.35;;;;;;;25.59;33.44;100688.91;4789560;29;20058;-66
2022/06/10 07:21:38;;;;;;;0.63;0.40;;;;;;;25.76;33.53;100688.34;4789243;29;20063;-66
2022/06/10 07:24:07;;;;;;;1.80;0.40;;;;;;;25.85;32.94;100690.03;4789284;29;20047;-67
2022/06/10 07:26:35;;;;;;;0.77;0.40;;;;;;;25.69;32.32;100691.06;4789500;29;20066;-66
2022/06/10 07:29:03;;;;;;;1.80;0.35;;;;;;;25.75;33.20;100697.13;4788074;29;20059;-66
2022/06/10 07:31:31;;;;;;;0.45;0.45;;;;;;;25.86;33.51;100697.25;4787761;29;20059;-67
2022/06/10 07:33:59;;;;;;;0.60;0.50;;;;;;;26.01;33.55;100704.63;4788127;29;20160;-66
2022/06/10 07:36:27;;;;;;;0.30;0.30;;;;;;;26.05;33.33;100707.47;4787280;29;20495;-66
2022/06/10 07:38:55;;;;;;;1.63;0.40;;;;;;;26.14;33.72;100718.38;4787676;29;20051;-66
2022/06/10 07:44:09;;;;;;;0.82;0.57;;;;;;;26.12;33.45;100706.75;4787126;29;20051;-66
2022/06/10 07:46:37;;;;;;;0.70;0.35;;;;;;;26.15;33.16;100714.41;4787233;29;20052;-66
2022/06/10 07:49:05;;;;;;;1.08;0.50;;;;;;;26.16;33.32;100727.22;4787531;29;20060;-66
2022/06/10 07:51:33;;;;;;;0.30;0.30;;;;;;;26.09;33.51;100716.72;4786559;29;20047;-66
2022/06/10 07:54:01;;;;;;;1.10;0.55;;;;;;;26.07;33.51;100724.72;4787299;29;20054;-66
2022/06/10 07:56:29;;;;;;;1.45;0.40;;;;;;;26.03;32.67;100721.88;4787454;29;20058;-66
2022/06/10 07:58:58;;;;;;;1.25;0.55;;;;;;;26.02;33.53;100714.66;4787263;29;20062;-66
2022/06/10 08:01:28;;;;;;;1.40;0.43;;;;;;;26.18;32.71;100724.84;4784648;29;20051;-66
2022/06/10 08:03:57;;;;;;;0.38;0.38;;;;;;;26.28;31.79;100726.16;4785476;29;20043;-66
2022/06/10 08:06:28;;;;;;;0.50;0.50;;;;;;;26.30;31.33;100733.00;4787322;29;20068;-66
2022/06/10 08:08:56;;;;;;;0.82;0.35;;;;;;;26.26;32.07;100720.97;4787070;29;20055;-66
2022/06/10 08:11:24;;;;;;;1.00;0.20;;;;;;;26.33;32.10;100725.03;4787499;29;20059;-66
2022/06/10 08:13:53;;;;;;;1.05;0.30;;;;;;;26.34;32.41;100726.63;4786980;29;20059;-66
2022/06/10 08:16:21;;;;;;;1.85;0.60;;;;;;;26.39;32.86;100726.28;4786519;29;20047;-66
2022/06/10 08:18:51;;;;;;;0.30;0.30;;;;;;;26.60;31.74;100730.47;4786767;29;20054;-66
2022/06/10 08:24:06;;;;;;;0.75;0.20;;;;;;;26.60;32.21;100739.72;4786515;29;20064;-67
2022/06/10 08:26:35;;;;;;;0.30;0.20;;;;;;;26.65;30.98;100738.53;4794931;29;20063;-67
2022/06/10 08:29:03;;;;;;;0.30;0.20;;;;;;;26.61;32.21;100732.06;4785034;29;20059;-66
2022/06/10 08:31:31;;;;;;;0.20;0.20;;;;;;;26.71;32.47;100739.78;4786066;29;20063;-67
2022/06/10 08:34:01;;;;;;;0.30;0.30;;;;;;;26.84;31.62;100746.72;4786483;29;20082;-66
2022/06/10 08:36:30;;;;;;;0.80;0.30;;;;;;;26.95;31.71;100743.22;4785809;29;20074;-66
2022/06/10 08:38:58;;;;;;;0.25;0.25;;;;;;;26.95;30.40;100738.41;4782503;29;20508;-67
2022/06/10 08:41:31;;;;;;;0.43;0.40;;;;;;;27.04;29.94;100735.28;4781719;29;20059;-67
2022/06/10 08:44:11;;;;;;;3.75;0.30;;;;;;;27.14;29.65;100738.53;4787336;29;20423;-67
2022/06/10 08:47:20;;;;;;;0.52;0.30;;;;;;;27.36;28.91;100745.09;4784643;29;20403;-67
2022/06/10 08:50:39;;;;;;;3.08;0.20;;;;;;;27.43;27.87;100745.16;4714144;30;20057;-67
2022/06/10 08:53:22;;;;;;;0.20;0.20;;;;;;;27.51;29.84;100745.97;4707174;30;20061;-67
2022/06/10 08:56:11;;;;;;;1.55;0.28;;;;;;;27.63;28.60;100754.09;4784613;29;20070;-67
2022/06/10 08:58:58;;;;;;;0.65;0.28;;;;;;;27.66;26.96;100754.53;4785460;29;20055;-67
2022/06/10 09:01:30;;;;;;;1.58;0.22;;;;;;;27.65;29.19;100764.16;4786512;29;20043;-67
2022/06/10 09:04:10;;;;;;;0.20;0.10;;;;;;;27.71;28.02;100771.00;4785532;29;20039;-66
2022/06/10 09:06:48;;;;;;;0.20;0.20;;;;;;;27.81;26.97;100761.81;4784606;29;20055;-67
2022/06/10 09:09:18;;;;;;;0.20;0.10;;;;;;;27.83;27.00;100773.47;4785168;29;20047;-66
2022/06/10 09:11:51;;;;;;;0.38;0.30;;;;;;;27.89;26.49;100771.88;4784908;29;20059;-66
2022/06/10 09:14:25;;;;;;;0.75;0.10;;;;;;;27.88;26.23;100770.28;4784186;29;20055;-66
2022/06/10 09:17:09;;;;;;;0.40;0.20;;;;;;;27.89;26.57;100771.88;4785409;29;20051;-67
2022/06/10 09:20:03;;;;;;;0.22;0.20;;;;;;;28.01;26.33;100778.38;4783191;29;20051;-67
2022/06/10 09:22:44;;;;;;;0.52;0.10;;;;;;;28.08;25.92;100780.38;4784856;29;20055;-66
2022/06/10 09:25:23;;;;;;;0.32;0.10;;;;;;;28.07;25.58;100788.03;4785814;29;20458;-67
2022/06/10 09:27:56;;;;;;;0.70;0.10;;;;;;;28.06;26.55;100792.03;4784696;29;20052;-66
2022/06/10 09:30:41;;;;;;;0.20;0.20;;;;;;;28.18;26.51;100790.88;4786093;29;20499;-66
2022/06/10 09:33:32;;;;;;;0.10;0.10;;;;;;;28.42;27.02;100780.91;4785228;29;20062;-66
2022/06/10 09:36:15;;;;;;;0.13;0.08;;;;;;;28.25;26.83;100787.31;4783853;29;20059;-66
2022/06/10 09:38:45;;;;;;;0.20;0.20;;;;;;;28.13;27.27;100789.25;4783866;29;20051;-67
2022/06/10 09:41:20;;;;;;;0.10;0.10;;;;;;;28.09;26.75;100777.19;4785836;29;20055;-66
2022/06/10 09:44:00;;;;;;;0.00;0.00;;;;;;;28.26;26.19;100780.47;4784070;29;20074;-66
2022/06/10 09:46:58;;;;;;;0.20;0.17;;;;;;;28.34;26.26;100786.94;4785238;29;20055;-67
2022/06/10 09:50:05;;;;;;;0.25;0.25;;;;;;;28.51;26.41;100779.72;4788563;29;20055;-67
2022/06/10 09:52:45;;;;;;;0.00;0.00;;;;;;;28.49;26.65;100779.31;4784323;29;20048;-66
2022/06/10 09:55:26;;;;;;;2.33;0.30;;;;;;;28.68;26.96;100780.94;4779690;29;20047;-67
2022/06/10 09:58:18;;;;;;;0.90;0.20;;;;;;;28.70;25.94;100784.97;4782861;29;20047;-66
2022/06/10 10:00:52;;;;;;;1.08;1.00;;;;;;;28.74;25.95;100784.97;4783180;29;20055;-67
2022/06/10 10:03:23;;;;;;;0.10;0.10;;;;;;;28.63;26.56;100790.59;4781216;29;20399;-67
2022/06/10 10:06:19;;;;;;;0.35;0.17;;;;;;;28.70;26.58;100796.22;4784123;29;20059;-67
2022/06/10 10:09:05;;;;;;;0.65;0.17;;;;;;;28.65;26.05;100787.38;4779288;29;20067;-66
2022/06/10 10:11:49;;;;;;;0.22;0.22;;;;;;;28.81;26.05;100789.78;4778511;29;20063;-67
2022/06/10 10:14:22;;;;;;;0.10;0.10;;;;;;;28.77;26.36;100797.44;4780753;29;20074;-67
2022/06/10 10:17:07;;;;;;;0.20;0.20;;;;;;;28.88;25.79;100801.09;4779586;29;20055;-66
2022/06/10 10:19:46;;;;;;;0.17;0.15;;;;;;;29.05;25.64;100807.94;4782896;29;20534;-67
2022/06/10 10:22:36;;;;;;;0.60;0.13;;;;;;;29.03;26.11;100792.66;4783234;29;20059;-67
2022/06/10 10:25:04;;;;;;;0.90;0.10;;;;;;;29.06;25.96;100797.47;4784266;29;20059;-66
2022/06/10 10:27:34;;;;;;;0.30;0.30;;;;;;;29.13;25.78;100802.31;4785353;29;20047;-67
2022/06/10 10:30:51;;;;;;;0.20;0.20;;;;;;;29.16;26.79;100802.28;4784156;29;20415;-67
2022/06/10 10:33:19;;;;;;;0.80;0.40;;;;;;;29.33;26.46;100797.06;4746351;30;20060;-67
2022/06/10 10:35:53;;;;;;;0.22;0.22;;;;;;;29.25;26.37;100801.88;4748299;30;20056;-67
2022/06/10 10:38:41;;;;;;;0.90;0.32;;;;;;;29.40;26.12;100793.41;4768019;29;20055;-67
2022/06/10 10:41:38;;;;;;;0.20;0.20;;;;;;;29.42;25.45;100799.44;4785019;29;20055;-67
2022/06/10 10:44:32;;;;;;;0.20;0.20;;;;;;;29.52;26.52;100803.47;4783452;29;20067;-66
2022/06/10 10:47:14;;;;;;;0.52;0.47;;;;;;;29.61;26.41;100801.03;4783991;29;20389;-66
2022/06/10 10:49:51;;;;;;;0.20;0.17;;;;;;;29.77;25.96;100807.03;4783047;29;20503;-67
2022/06/10 10:52:24;;;;;;;2.33;0.35;;;;;;;29.74;25.29;100813.50;4786536;29;20068;-66
2022/06/10 10:54:59;;;;;;;;;;;;;;;29.82;25.08;100800.19;4788008;29;20526;-66
2022/06/10 10:57:32;;;;;;;0.50;0.50;;;;;;;29.93;26.04;100804.94;4786976;29;19925;-66
2022/06/10 11:00:03;;;;;;;0.20;0.20;;;;;;;30.07;25.94;100798.44;4786110;29;20067;-66
2022/06/10 11:02:38;;;;;;;0.22;0.22;;;;;;;30.01;25.55;100801.69;4787417;29;20063;-66
2022/06/10 11:05:21;;;;;;;0.40;0.28;;;;;;;30.10;25.91;100806.91;4786181;29;20705;-66
2022/06/10 11:08:19;;;;;;;1.02;0.30;;;;;;;30.04;25.35;100798.06;4786772;29;20509;-67
2022/06/10 11:11:24;;;;;;;0.30;0.30;;;;;;;29.96;25.84;100804.94;4785863;29;20545;-66
2022/06/10 11:14:04;;;;;;;0.30;0.20;;;;;;;30.03;25.60;100804.09;4786522;29;20066;-66
2022/06/10 11:16:36;;;;;;;0.55;0.13;;;;;;;30.11;25.41;100804.91;4787479;29;20502;-66
2022/06/10 11:19:25;;;;;;;0.25;0.25;;;;;;;30.06;24.57;100800.47;4787565;29;20526;-66
2022/06/10 11:22:09;;;;;;;0.85;0.30;;;;;;;30.17;25.40;100809.69;4782395;29;20067;-66
2022/06/10 11:24:42;;;;;;;0.20;0.20;;;;;;;30.16;24.73;100801.66;4784300;29;20049;-66
2022/06/10 11:27:32;;;;;;;0.28;0.28;;;;;;;29.99;24.77;100804.13;4782570;29;20062;-66
2022/06/10 11:30:13;;;;;;;0.20;0.20;;;;;;;30.03;25.68;100810.56;4787350;29;20086;-66
2022/06/10 11:32:50;;;;;;;0.80;0.17;;;;;;;30.21;25.63;100809.72;4786753;29;20478;-67
2022/06/10 11:35:37;;;;;;;0.45;0.20;;;;;;;30.13;24.83;100806.13;4785668;29;20058;-67
2022/06/10 11:38:28;;;;;;;0.10;0.10;;;;;;;30.31;25.17;100814.47;4787243;29;20067;-66
2022/06/10 11:40:59;;;;;;;0.25;0.25;;;;;;;30.44;24.62;100805.53;4785967;29;20063;-67
2022/06/10 11:43:41;;;;;;;1.60;0.40;;;;;;;30.51;24.25;100805.50;4784373;29;20062;-67
2022/06/10 11:46:39;;;;;;;0.10;0.10;;;;;;;30.55;24.60;100806.25;4786781;29;20422;-67
2022/06/10 11:49:32;;;;;;;0.10;0.10;;;;;;;30.69;24.75;100807.44;4786740;29;20050;-67
2022/06/10 11:52:13;;;;;;;0.67;0.20;;;;;;;30.87;24.29;100798.00;4786213;29;20063;-67
2022/06/10 11:55:05;;;;;;;0.17;0.17;;;;;;;30.79;24.49;100803.69;4786355;29;20059;-66
2022/06/10 12:01:03;;;;;;;0.20;0.17;;;;;;;30.72;23.80;100791.66;4787302;29;20062;-67
2022/06/10 12:03:37;;;;;;;0.20;0.20;;;;;;;30.76;24.95;100786.78;4784617;29;20066;-67
2022/06/10 12:06:22;;;;;;;0.55;0.30;;;;;;;30.78;23.82;100798.47;4786196;29;20047;-66
2022/06/10 12:08:55;;;;;;;1.42;0.30;;;;;;;31.05;24.04;100786.53;4786593;29;20062;-66
2022/06/10 12:11:33;;;;;;;0.40;0.38;;;;;;;31.16;23.92;100792.06;4786793;29;20055;-66
2022/06/10 12:14:20;;;;;;;1.40;0.20;;;;;;;31.10;24.39;100789.72;4779190;29;20067;-67
2022/06/10 12:17:28;;;;;;;0.25;0.20;;;;;;;31.21;24.12;100794.44;4782137;29;20051;-66
2022/06/10 12:20:04;;;;;;;0.32;0.30;;;;;;;31.28;24.99;100788.75;4784925;29;20054;-66
2022/06/10 12:22:34;;;;;;;0.20;0.20;;;;;;;31.46;24.38;100771.63;4787086;29;20059;-67